Time,TemperatureF,DewpointF,PressureIn,WindDirection,WindDirectionDegrees,WindSpeedMPH,WindSpeedGustMPH,Humidity,HourlyPrecipIn,Conditions,Clouds,dailyrainin,SoftwareType,DateUTC
2013-05-11 00:15:00,57.2,55.0,29.86,South,172,0.0,0.0,93,0.00,,,0.00,weatherlink.com 1.10,2013-05-11 04:15:00,
2013-05-11 00:30:00,56.8,55.0,29.86,South,172,0.0,0.0,93,0.00,,,0.00,weatherlink.com 1.10,2013-05-11 04:30:00,
2013-05-11 00:45:00,56.4,55.0,29.86,South,172,0.0,0.0,94,0.00,,,0.00,weatherlink.com 1.10,2013-05-11 04:45:00,
2013-05-11 01:00:00,56.2,55.0,29.85,South,172,0.0,0.0,94,0.00,,,0.00,weatherlink.com 1.10,2013-05-11 05:00:00,
2013-05-11 01:15:00,56.2,55.0,29.85,South,172,0.0,0.0,95,0.00,,,0.00,weatherlink.com 1.10,2013-05-11 05:15:00,
2013-05-11 01:30:00,56.6,55.0,29.85,South,174,0.0,0.0,95,0.00,,,0.00,weatherlink.com 1.10,2013-05-11 05:30:00,
2013-05-11 01:45:00,56.6,55.0,29.84,South,173,0.0,0.0,94,0.00,,,0.00,weatherlink.com 1.10,2013-05-11 05:45:00,
2013-05-11 02:00:00,56.4,55.0,29.83,South,172,0.0,0.0,94,0.00,,,0.00,weatherlink.com 1.10,2013-05-11 06:00:00,
2013-05-11 02:15:00,56.6,55.0,29.83,South,174,0.0,0.0,95,0.00,,,0.00,weatherlink.com 1.10,2013-05-11 06:15:00,
2013-05-11 02:30:00,57.0,55.0,29.82,South,172,0.0,0.0,94,0.00,,,0.00,weatherlink.com 1.10,2013-05-11 06:30:00,
2013-05-11 02:45:00,57.2,55.0,29.82,South,172,0.0,0.0,93,0.00,,,0.00,weatherlink.com 1.10,2013-05-11 06:45:00,
2013-05-11 03:00:00,57.1,55.0,29.81,South,172,0.0,0.0,93,0.00,,,0.00,weatherlink.com 1.10,2013-05-11 07:00:00,
2013-05-11 03:15:00,57.0,55.0,29.80,South,172,0.0,0.0,93,0.00,,,0.00,weatherlink.com 1.10,2013-05-11 07:15:00,
2013-05-11 03:30:00,57.2,55.0,29.79,SSE,163,0.0,0.0,92,0.00,,,0.00,weatherlink.com 1.10,2013-05-11 07:30:00,
2013-05-11 03:45:00,57.4,55.0,29.79,SSE,165,0.0,0.0,92,0.00,,,0.00,weatherlink.com 1.10,2013-05-11 07:45:00,
2013-05-11 04:00:00,57.6,55.0,29.79,South,182,0.0,0.0,91,0.00,,,0.00,weatherlink.com 1.10,2013-05-11 08:00:00,
2013-05-11 04:15:00,57.5,55.0,29.78,SSE,155,0.0,0.0,91,0.00,,,0.00,weatherlink.com 1.10,2013-05-11 08:15:00,
2013-05-11 04:30:00,57.1,55.0,29.77,SE,142,0.0,0.0,92,0.00,,,0.00,weatherlink.com 1.10,2013-05-11 08:30:00,
2013-05-11 04:45:00,56.8,55.0,29.77,SSW,203,0.0,0.0,92,0.00,,,0.00,weatherlink.com 1.10,2013-05-11 08:45:00,
2013-05-11 05:00:00,56.5,54.0,29.77,SSW,205,0.0,0.0,92,0.00,,,0.00,weatherlink.com 1.10,2013-05-11 09:00:00,
2013-05-11 05:15:00,56.4,55.0,29.76,South,170,0.0,0.0,93,0.00,,,0.00,weatherlink.com 1.10,2013-05-11 09:15:00,
2013-05-11 05:30:00,56.3,54.0,29.77,SW,226,0.0,0.0,93,0.00,,,0.00,weatherlink.com 1.10,2013-05-11 09:30:00,
2013-05-11 05:45:00,56.0,54.0,29.77,SSE,153,0.0,0.0,93,0.00,,,0.00,weatherlink.com 1.10,2013-05-11 09:45:00,
2013-05-11 06:00:00,55.8,54.0,29.77,South,174,0.0,0.0,94,0.00,,,0.00,weatherlink.com 1.10,2013-05-11 10:00:00,
2013-05-11 06:15:00,55.8,54.0,29.76,South,173,0.0,0.0,94,0.01,,,0.01,weatherlink.com 1.10,2013-05-11 10:15:00,
2013-05-11 06:30:00,55.7,54.0,29.76,South,174,0.0,0.0,95,0.03,,,0.03,weatherlink.com 1.10,2013-05-11 10:30:00,
2013-05-11 06:45:00,55.6,55.0,29.75,South,173,0.0,0.0,96,0.04,,,0.04,weatherlink.com 1.10,2013-05-11 10:45:00,
2013-05-11 07:00:00,55.6,55.0,29.76,South,174,0.0,0.0,97,0.07,,,0.07,weatherlink.com 1.10,2013-05-11 11:00:00,
2013-05-11 07:15:00,55.7,55.0,29.76,South,172,0.0,0.0,98,0.08,,,0.09,weatherlink.com 1.10,2013-05-11 11:15:00,
2013-05-11 07:30:00,55.9,55.0,29.76,SSE,156,0.0,0.0,98,0.07,,,0.10,weatherlink.com 1.10,2013-05-11 11:30:00,
2013-05-11 07:45:00,56.0,56.0,29.75,SSE,155,0.0,0.0,98,0.06,,,0.10,weatherlink.com 1.10,2013-05-11 11:45:00,
2013-05-11 08:00:00,56.7,57.0,29.75,SE,138,0.0,0.0,99,0.03,,,0.10,weatherlink.com 1.10,2013-05-11 12:00:00,
2013-05-11 08:15:00,57.0,57.0,29.75,SSW,199,0.0,1.0,99,0.01,,,0.10,weatherlink.com 1.10,2013-05-11 12:15:00,
2013-05-11 08:30:00,57.3,57.0,29.75,WSW,250,0.0,0.0,99,0.00,,,0.10,weatherlink.com 1.10,2013-05-11 12:30:00,
2013-05-11 08:45:00,57.9,58.0,29.74,WSW,245,1.0,3.0,99,0.00,,,0.10,weatherlink.com 1.10,2013-05-11 12:45:00,
2013-05-11 09:00:00,58.3,58.0,29.74,SSW,206,1.0,3.0,99,0.00,,,0.10,weatherlink.com 1.10,2013-05-11 13:00:00,
2013-05-11 09:16:00,59.0,59.0,29.73,SSW,205,1.0,2.0,99,0.00,,,0.10,weatherlink.com 1.10,2013-05-11 13:16:00,
2013-05-11 09:31:00,59.5,59.0,29.73,SW,229,1.0,4.0,99,0.00,,,0.10,weatherlink.com 1.10,2013-05-11 13:31:00,
2013-05-11 09:46:00,59.8,59.0,29.73,SE,141,0.0,2.0,98,0.00,,,0.10,weatherlink.com 1.10,2013-05-11 13:46:00,
2013-05-11 10:01:00,60.9,61.0,29.73,SSW,198,1.0,4.0,99,0.00,,,0.10,weatherlink.com 1.10,2013-05-11 14:01:00,
2013-05-11 10:16:00,62.0,61.0,29.73,SW,217,4.0,5.0,96,0.00,,,0.10,weatherlink.com 1.10,2013-05-11 14:16:00,
2013-05-11 10:31:00,62.4,61.0,29.72,SW,217,0.0,9.0,95,0.00,,,0.10,weatherlink.com 1.10,2013-05-11 14:31:00,
2013-05-11 10:46:00,62.4,61.0,29.72,SW,233,0.0,1.0,94,0.00,,,0.10,weatherlink.com 1.10,2013-05-11 14:46:00,
2013-05-11 11:01:00,62.5,61.0,29.72,SW,233,1.0,5.0,94,0.00,,,0.10,weatherlink.com 1.10,2013-05-11 15:01:00,
2013-05-11 11:16:00,63.3,62.0,29.71,SSW,210,4.0,4.0,94,0.00,,,0.10,weatherlink.com 1.10,2013-05-11 15:16:00,
2013-05-11 11:31:00,63.7,61.0,29.72,WSW,239,1.0,2.0,92,0.00,,,0.10,weatherlink.com 1.10,2013-05-11 15:31:00,
2013-05-11 11:46:00,63.6,61.0,29.71,WSW,257,1.0,5.0,91,0.00,,,0.10,weatherlink.com 1.10,2013-05-11 15:46:00,
2013-05-11 12:01:00,63.6,61.0,29.71,South,188,1.0,4.0,91,0.00,,,0.10,weatherlink.com 1.10,2013-05-11 16:01:00,
2013-05-11 12:16:00,63.5,61.0,29.71,WSW,238,1.0,7.0,91,0.00,,,0.10,weatherlink.com 1.10,2013-05-11 16:16:00,
2013-05-11 12:31:00,63.6,61.0,29.70,SW,235,0.0,2.0,91,0.00,,,0.10,weatherlink.com 1.10,2013-05-11 16:31:00,
2013-05-11 12:46:00,63.5,61.0,29.70,SSE,153,1.0,7.0,91,0.00,,,0.10,weatherlink.com 1.10,2013-05-11 16:46:00,
2013-05-11 13:01:00,63.6,61.0,29.70,South,191,1.0,5.0,90,0.00,,,0.10,weatherlink.com 1.10,2013-05-11 17:01:00,
2013-05-11 13:16:00,63.8,61.0,29.70,SW,215,0.0,4.0,90,0.00,,,0.10,weatherlink.com 1.10,2013-05-11 17:16:00,
2013-05-11 13:31:00,63.4,61.0,29.70,SSE,152,1.0,3.0,92,0.02,,,0.12,weatherlink.com 1.10,2013-05-11 17:31:00,
2013-05-11 13:46:00,62.4,61.0,29.69,WSW,238,1.0,4.0,95,0.02,,,0.12,weatherlink.com 1.10,2013-05-11 17:46:00,
2013-05-11 14:01:00,62.3,61.0,29.69,SW,226,1.0,5.0,96,0.02,,,0.12,weatherlink.com 1.10,2013-05-11 18:01:00,
2013-05-11 14:16:00,63.0,62.0,29.68,WNW,290,2.0,3.0,97,0.02,,,0.12,weatherlink.com 1.10,2013-05-11 18:16:00,
2013-05-11 14:31:00,63.3,62.0,29.68,SW,218,1.0,9.0,95,0.00,,,0.12,weatherlink.com 1.10,2013-05-11 18:31:00,
2013-05-11 14:46:00,63.5,62.0,29.68,South,179,1.0,3.0,95,0.00,,,0.12,weatherlink.com 1.10,2013-05-11 18:46:00,
2013-05-11 15:01:00,63.4,62.0,29.67,SW,236,0.0,5.0,96,0.02,,,0.14,weatherlink.com 1.10,2013-05-11 19:01:00,
2013-05-11 15:16:00,63.3,63.0,29.67,SSW,212,0.0,2.0,97,0.03,,,0.15,weatherlink.com 1.10,2013-05-11 19:16:00,
2013-05-11 15:31:00,63.1,62.0,29.67,SW,217,0.0,4.0,97,0.06,,,0.18,weatherlink.com 1.10,2013-05-11 19:31:00,
2013-05-11 15:46:00,62.9,62.0,29.66,South,185,0.0,1.0,98,0.08,,,0.20,weatherlink.com 1.10,2013-05-11 19:46:00,
2013-05-11 16:01:00,63.3,63.0,29.66,SSW,208,1.0,1.0,98,0.06,,,0.20,weatherlink.com 1.10,2013-05-11 20:01:00,
2013-05-11 16:16:00,63.3,63.0,29.66,SW,215,1.0,3.0,98,0.05,,,0.20,weatherlink.com 1.10,2013-05-11 20:16:00,
2013-05-11 16:31:00,63.0,62.0,29.66,SE,145,0.0,3.0,97,0.01,,,0.20,weatherlink.com 1.10,2013-05-11 20:31:00,
2013-05-11 16:46:00,62.8,62.0,29.66,SSW,193,1.0,3.0,97,0.00,,,0.20,weatherlink.com 1.10,2013-05-11 20:46:00,
2013-05-11 17:01:00,62.9,62.0,29.66,SW,214,1.0,4.0,97,0.01,,,0.21,weatherlink.com 1.10,2013-05-11 21:01:00,
2013-05-11 17:16:00,62.6,62.0,29.66,SW,218,0.0,3.0,97,0.02,,,0.22,weatherlink.com 1.10,2013-05-11 21:16:00,
2013-05-11 17:31:00,62.3,62.0,29.66,SSW,207,1.0,3.0,98,0.05,,,0.25,weatherlink.com 1.10,2013-05-11 21:31:00,
2013-05-11 17:46:00,61.9,61.0,29.67,ESE,116,3.0,4.0,98,0.08,,,0.28,weatherlink.com 1.10,2013-05-11 21:46:00,
2013-05-11 18:01:00,61.6,61.0,29.66,SSE,150,2.0,4.0,98,0.10,,,0.31,weatherlink.com 1.10,2013-05-11 22:01:00,
2013-05-11 18:16:00,61.4,61.0,29.67,South,181,0.0,3.0,98,0.10,,,0.32,weatherlink.com 1.10,2013-05-11 22:16:00,
2013-05-11 18:31:00,61.1,61.0,29.67,SSW,195,1.0,2.0,98,0.08,,,0.33,weatherlink.com 1.10,2013-05-11 22:31:00,
2013-05-11 18:46:00,60.9,61.0,29.68,SW,219,0.0,3.0,99,0.07,,,0.35,weatherlink.com 1.10,2013-05-11 22:46:00,
2013-05-11 19:01:00,60.7,61.0,29.68,SW,222,0.0,2.0,99,0.06,,,0.01,weatherlink.com 1.10,2013-05-11 23:01:00,
2013-05-11 19:16:00,60.6,60.0,29.66,SSW,201,1.0,2.0,99,0.06,,,0.02,weatherlink.com 1.10,2013-05-11 23:16:00,
2013-05-11 19:31:00,60.7,61.0,29.66,SW,233,2.0,3.0,99,0.05,,,0.02,weatherlink.com 1.10,2013-05-11 23:31:00,
2013-05-11 19:46:00,60.6,60.0,29.68,SE,129,1.0,2.0,99,0.03,,,0.02,weatherlink.com 1.10,2013-05-11 23:46:00,
2013-05-11 20:01:00,60.6,60.0,29.68,SW,219,1.0,4.0,99,0.01,,,0.02,weatherlink.com 1.10,2013-05-12 00:01:00,
2013-05-11 20:16:00,60.6,60.0,29.68,WSW,257,0.0,3.0,99,0.00,,,0.02,weatherlink.com 1.10,2013-05-12 00:16:00,
2013-05-11 20:31:00,60.5,60.0,29.67,South,169,0.0,1.0,99,0.00,,,0.02,weatherlink.com 1.10,2013-05-12 00:31:00,
2013-05-11 20:46:00,60.6,60.0,29.67,South,176,1.0,3.0,99,0.00,,,0.02,weatherlink.com 1.10,2013-05-12 00:46:00,
2013-05-11 21:01:00,60.5,60.0,29.67,South,180,0.0,2.0,99,0.00,,,0.02,weatherlink.com 1.10,2013-05-12 01:01:00,
2013-05-11 21:16:00,60.5,60.0,29.67,SSE,154,0.0,2.0,99,0.00,,,0.02,weatherlink.com 1.10,2013-05-12 01:16:00,
2013-05-11 21:31:00,60.4,60.0,29.66,SSE,158,0.0,2.0,100,0.00,,,0.02,weatherlink.com 1.10,2013-05-12 01:31:00,
2013-05-11 21:46:00,60.4,60.0,29.67,SSE,153,1.0,3.0,100,0.00,,,0.02,weatherlink.com 1.10,2013-05-12 01:46:00,
2013-05-11 22:01:00,60.4,60.0,29.68,SSE,149,1.0,2.0,100,0.00,,,0.02,weatherlink.com 1.10,2013-05-12 02:01:00,
2013-05-11 22:16:00,60.3,60.0,29.67,South,169,0.0,2.0,100,0.00,,,0.02,weatherlink.com 1.10,2013-05-12 02:16:00,
2013-05-11 22:31:00,60.2,60.0,29.66,SW,226,1.0,1.0,100,0.00,,,0.02,weatherlink.com 1.10,2013-05-12 02:31:00,
2013-05-11 22:46:00,60.3,60.0,29.66,SSW,201,0.0,2.0,100,0.00,,,0.02,weatherlink.com 1.10,2013-05-12 02:46:00,
2013-05-11 23:01:00,60.2,60.0,29.68,SSE,154,1.0,2.0,100,0.00,,,0.02,weatherlink.com 1.10,2013-05-12 03:01:00,
2013-05-11 23:16:00,60.1,60.0,29.66,SSW,198,0.0,1.0,100,0.00,,,0.02,weatherlink.com 1.10,2013-05-12 03:16:00,
2013-05-11 23:31:00,60.0,60.0,29.66,SSE,163,0.0,1.0,100,0.00,,,0.02,weatherlink.com 1.10,2013-05-12 03:31:00,
2013-05-11 23:46:00,60.0,60.0,29.66,SE,145,1.0,2.0,100,0.00,,,0.02,weatherlink.com 1.10,2013-05-12 03:46:00,